Time;durP1;ratioP1;P1;durP2;ratioP2;P2;SDS_P1;SDS_P2;PMS_P1;PMS_P2;Temp;Humidity;BMP_temperature;BMP_pressure;BME280_temperature;BME280_humidity;BME280_pressure;Samples;Min_cycle;Max_cycle;Signal;HPM_P1;HPM_P2
2023/01/13 00:01:50;;;;;;;1.90;1.60;;;;;;;14.71;46.83;98459.25;6972956;28;20259;-79
2023/01/13 00:05:12;;;;;;;2.07;1.57;;;;;;;14.76;46.16;98455.81;6972823;28;20223;-79
2023/01/13 00:08:34;;;;;;;5.13;1.77;;;;;;;14.73;46.45;98448.16;6972575;28;20233;-79
2023/01/13 00:11:57;;;;;;;3.17;2.03;;;;;;;15.04;45.96;98451.25;6972666;28;20214;-79
2023/01/13 00:15:19;;;;;;;3.67;1.63;;;;;;;14.92;45.88;98452.38;6972028;28;20317;-79
2023/01/13 00:18:40;;;;;;;4.73;2.30;;;;;;;14.73;46.82;98443.56;6972891;28;20334;-80
2023/01/13 00:22:01;;;;;;;3.50;1.80;;;;;;;15.00;45.99;98436.53;6973063;28;20206;-79
2023/01/13 00:25:23;;;;;;;2.07;1.67;;;;;;;14.92;46.29;98442.31;6972458;28;20222;-79
2023/01/13 00:28:46;;;;;;;1.80;1.50;;;;;;;14.69;47.06;98425.28;6973184;28;20655;-79
2023/01/13 00:32:07;;;;;;;2.53;1.53;;;;;;;14.43;47.71;98429.34;6973044;28;20694;-79
2023/01/13 00:35:29;;;;;;;2.70;1.30;;;;;;;14.65;47.32;98415.97;6971724;28;20294;-79
2023/01/13 00:38:50;;;;;;;2.67;1.60;;;;;;;14.62;47.28;98411.84;6973089;28;20260;-79
2023/01/13 00:45:52;;;;;;;1.50;1.40;;;;;;;14.62;47.27;98394.75;6971618;28;20650;-79
2023/01/13 00:49:14;;;;;;;1.90;1.80;;;;;;;14.94;46.69;98401.34;6972559;28;20345;-80
2023/01/13 00:52:35;;;;;;;1.63;1.53;;;;;;;14.71;47.09;98398.72;6972548;28;20297;-80
2023/01/13 00:56:00;;;;;;;2.47;1.60;;;;;;;13.87;47.91;98322.63;6971281;28;20743;-79
2023/01/13 00:59:22;;;;;;;2.27;1.50;;;;;;;14.54;47.82;98390.53;6971817;28;20199;-79
2023/01/13 01:02:45;;;;;;;1.73;1.63;;;;;;;14.41;46.78;98338.44;6971972;28;20265;-80
2023/01/13 01:06:07;;;;;;;3.23;1.60;;;;;;;15.32;45.57;98379.78;6976213;28;20323;-79
2023/01/13 01:09:32;;;;;;;2.07;1.53;;;;;;;14.71;46.79;98367.00;6999951;28;20298;-80
2023/01/13 01:12:53;;;;;;;2.13;1.77;;;;;;;15.18;45.78;98378.47;6999748;28;20210;-79
2023/01/13 01:16:17;;;;;;;2.73;1.57;;;;;;;15.34;45.46;98383.13;6999133;28;20751;-79
2023/01/13 01:19:39;;;;;;;1.60;1.50;;;;;;;15.87;44.31;98369.88;7001688;28;20273;-79
2023/01/13 01:23:01;;;;;;;1.30;1.20;;;;;;;15.59;44.74;98381.66;7005161;28;20206;-79
2023/01/13 01:26:24;;;;;;;1.50;1.40;;;;;;;15.68;44.31;98353.00;6999307;28;20814;-79
2023/01/13 01:29:46;;;;;;;2.50;1.40;;;;;;;14.89;45.75;98364.09;7004790;28;20257;-79
2023/01/13 01:33:07;;;;;;;2.03;1.30;;;;;;;15.38;45.15;98376.94;7005324;28;20260;-79
2023/01/13 01:36:30;;;;;;;2.23;1.60;;;;;;;15.40;45.51;98376.72;7004249;28;20326;-79
2023/01/13 01:39:52;;;;;;;1.47;1.37;;;;;;;15.56;44.76;98357.69;7004913;28;20247;-79
2023/01/13 01:47:02;;;;;;;1.93;1.40;;;;;;;15.51;45.26;98370.38;6979356;28;20265;-79
2023/01/13 01:50:24;;;;;;;1.93;1.70;;;;;;;15.39;45.10;98378.59;7004709;28;20659;-79
2023/01/13 01:53:47;;;;;;;1.40;1.30;;;;;;;15.44;45.26;98359.66;7004677;28;20206;-79
2023/01/13 01:57:11;;;;;;;1.37;1.30;;;;;;;15.41;45.63;98362.91;7004427;28;20262;-79
2023/01/13 02:00:33;;;;;;;1.50;1.40;;;;;;;15.73;45.56;98363.94;7009280;28;20244;-80
2023/01/13 02:03:58;;;;;;;4.70;1.67;;;;;;;14.94;47.55;98337.03;7007785;28;20283;-79
2023/01/13 02:07:22;;;;;;;2.00;1.40;;;;;;;14.65;47.99;98357.13;7003085;28;20225;-79
2023/01/13 02:10:47;;;;;;;2.90;1.27;;;;;;;14.88;46.56;98308.16;7004194;28;20273;-78
2023/01/13 02:14:09;;;;;;;3.70;1.40;;;;;;;15.53;45.93;98360.06;7003482;28;20223;-78
2023/01/13 02:17:43;;;;;;;1.30;1.20;;;;;;;15.25;46.54;98357.41;7003130;28;20318;-78
2023/01/13 02:21:21;;;;;;;1.73;1.37;;;;;;;15.07;46.46;98360.34;7004059;28;20643;-78
2023/01/13 02:25:07;;;;;;;2.60;1.30;;;;;;;15.27;46.42;98347.94;7003174;28;20194;-78
2023/01/13 02:31:40;;;;;;;1.50;1.40;;;;;;;14.70;47.37;98338.19;7003227;28;20191;-78
2023/01/13 02:32:30;;;;;;;1.40;1.30;;;;;;;15.15;46.44;98341.75;7003103;28;20582;-78
2023/01/13 02:35:55;;;;;;;2.17;1.40;;;;;;;15.04;46.75;98342.63;7002638;28;20598;-78
2023/01/13 02:39:23;;;;;;;3.17;1.57;;;;;;;15.01;46.89;98339.59;7003534;28;20243;-78
2023/01/13 02:46:32;;;;;;;1.53;1.40;;;;;;;15.08;46.53;98313.94;7002044;28;20226;-78
2023/01/13 02:49:58;;;;;;;2.77;1.40;;;;;;;15.35;45.94;98304.13;7002790;28;20234;-78
2023/01/13 02:53:23;;;;;;;1.50;1.40;;;;;;;15.04;46.57;98318.19;7003319;28;20253;-78
2023/01/13 02:56:47;;;;;;;1.30;1.20;;;;;;;15.09;46.69;98317.47;7001861;28;20376;-78
2023/01/13 03:00:11;;;;;;;2.53;1.33;;;;;;;15.33;45.94;98308.16;7003027;28;20356;-78
2023/01/13 03:03:33;;;;;;;3.03;1.60;;;;;;;15.37;45.85;98306.56;7002970;28;20206;-78
2023/01/13 03:07:01;;;;;;;3.27;1.50;;;;;;;15.16;46.36;98288.28;7002292;28;20299;-79
2023/01/13 03:10:32;;;;;;;1.73;1.40;;;;;;;15.34;46.09;98305.16;7003002;28;20607;-78
2023/01/13 03:14:12;;;;;;;1.53;1.43;;;;;;;14.97;46.94;98303.97;7002851;28;20216;-78
2023/01/13 03:17:40;;;;;;;1.60;1.50;;;;;;;14.74;47.75;98300.56;7001683;28;20238;-78
2023/01/13 03:21:06;;;;;;;4.73;1.60;;;;;;;14.78;47.79;98320.69;7002021;28;20274;-78
2023/01/13 03:24:34;;;;;;;1.90;1.53;;;;;;;15.20;46.94;98313.84;7001727;28;21036;-78
2023/01/13 03:27:57;;;;;;;1.37;1.27;;;;;;;15.16;46.79;98305.38;6997131;28;20266;-78
2023/01/13 03:31:22;;;;;;;2.87;1.47;;;;;;;14.69;47.68;98276.06;7002137;28;20225;-78
2023/01/13 03:34:47;;;;;;;1.60;1.50;;;;;;;14.76;47.84;98299.22;7000907;28;20637;-78
2023/01/13 03:38:11;;;;;;;3.13;1.60;;;;;;;14.61;48.19;98301.69;7002008;28;20368;-78
2023/01/13 03:41:38;;;;;;;2.33;1.20;;;;;;;15.09;47.02;98271.28;7000831;28;20213;-78
2023/01/13 03:45:04;;;;;;;2.03;1.40;;;;;;;15.09;47.29;98276.72;7001310;28;20199;-78
2023/01/13 03:48:26;;;;;;;1.60;1.50;;;;;;;15.32;46.82;98279.28;7001722;28;20275;-78
2023/01/13 03:51:54;;;;;;;2.53;1.57;;;;;;;14.98;47.43;98288.50;7001953;28;20210;-78
2023/01/13 03:55:18;;;;;;;1.47;1.30;;;;;;;14.61;48.58;98292.69;7000780;28;20774;-78
2023/01/13 03:58:43;;;;;;;1.47;1.37;;;;;;;14.25;49.48;98285.78;7000832;28;20693;-78
2023/01/13 04:02:08;;;;;;;3.77;1.60;;;;;;;14.25;49.84;98290.38;7001102;28;20570;-78
2023/01/13 04:05:30;;;;;;;1.73;1.47;;;;;;;14.22;49.97;98285.44;7000219;28;20289;-78
2023/01/13 04:08:55;;;;;;;2.10;1.73;;;;;;;14.58;49.36;98277.72;7001079;28;20339;-78
2023/01/13 04:12:20;;;;;;;1.77;1.30;;;;;;;15.01;48.23;98264.41;7001024;28;20448;-78
2023/01/13 04:15:45;;;;;;;1.53;1.43;;;;;;;15.08;47.68;98254.19;6999530;28;20232;-78
2023/01/13 04:19:06;;;;;;;4.03;1.60;;;;;;;14.49;49.04;98262.94;7000841;28;20360;-78
2023/01/13 04:22:28;;;;;;;1.93;1.40;;;;;;;15.10;47.98;98262.09;7001081;28;20207;-78
2023/01/13 04:25:50;;;;;;;3.13;1.30;;;;;;;14.80;48.64;98248.84;7000398;28;20221;-78
2023/01/13 04:29:12;;;;;;;1.40;1.30;;;;;;;14.44;49.33;98257.41;7000795;28;20206;-78
2023/01/13 04:32:35;;;;;;;2.87;1.70;;;;;;;14.43;49.57;98271.19;6999957;28;20355;-78
2023/01/13 04:35:56;;;;;;;1.50;1.40;;;;;;;14.29;49.77;98264.44;6999812;28;20282;-78
2023/01/13 04:39:18;;;;;;;2.87;1.87;;;;;;;14.72;48.81;98273.66;7000346;28;20348;-78
2023/01/13 04:42:39;;;;;;;1.10;1.10;;;;;;;14.79;48.66;98259.94;7006763;28;20217;-78
2023/01/13 04:46:01;;;;;;;1.50;1.40;;;;;;;14.76;48.60;98268.56;6999445;28;20335;-78
2023/01/13 04:49:24;;;;;;;1.87;1.40;;;;;;;14.77;48.49;98253.94;7000410;28;20218;-78
2023/01/13 04:52:46;;;;;;;1.33;1.30;;;;;;;15.24;47.12;98244.41;7000105;28;20210;-78
2023/01/13 04:56:07;;;;;;;1.37;1.20;;;;;;;14.85;47.83;98245.38;7003423;28;20234;-78
2023/01/13 04:59:29;;;;;;;2.70;1.90;;;;;;;14.66;48.54;98233.09;7005045;28;20292;-78
2023/01/13 05:02:51;;;;;;;1.40;1.30;;;;;;;15.13;47.52;98239.88;7004752;28;20296;-78
2023/01/13 05:06:14;;;;;;;1.60;1.50;;;;;;;15.40;46.73;98241.69;7004591;28;20227;-78
2023/01/13 05:09:35;;;;;;;1.40;1.27;;;;;;;15.07;47.39;98236.28;7004914;28;20287;-78
2023/01/13 05:20:15;;;;;;;2.20;1.50;;;;;;;15.83;45.76;98243.66;7004896;28;20206;-78
2023/01/13 05:27:17;;;;;;;2.87;1.90;;;;;;;15.38;47.00;98252.00;7002815;28;20219;-78
2023/01/13 05:30:42;;;;;;;1.23;1.23;;;;;;;15.38;46.69;98241.13;7003319;28;20291;-78
2023/01/13 05:34:03;;;;;;;1.30;1.10;;;;;;;15.80;45.98;98244.97;7006452;28;20206;-79
2023/01/13 05:37:25;;;;;;;1.93;1.23;;;;;;;15.79;45.59;98243.34;6998736;28;20320;-78
2023/01/13 05:44:27;;;;;;;1.10;1.10;;;;;;;16.10;44.92;98247.28;7002227;28;20210;-78
2023/01/13 05:47:49;;;;;;;1.60;1.50;;;;;;;15.49;46.31;98236.66;7009838;28;20223;-80
2023/01/13 05:51:11;;;;;;;1.20;1.20;;;;;;;14.38;47.43;98122.78;6996676;28;20300;-80
2023/01/13 05:54:33;;;;;;;1.90;1.30;;;;;;;15.23;46.97;98221.03;6982265;28;20270;-79
2023/01/13 05:57:56;;;;;;;1.27;1.17;;;;;;;15.62;45.57;98228.16;6980370;28;20322;-79
2023/01/13 06:01:17;;;;;;;1.63;1.30;;;;;;;15.46;46.31;98218.16;7009007;28;20209;-79
2023/01/13 06:04:39;;;;;;;1.40;1.30;;;;;;;15.59;46.40;98231.38;7011298;28;20289;-80
2023/01/13 06:08:02;;;;;;;1.60;1.10;;;;;;;15.51;45.95;98194.59;7005832;28;20248;-79
2023/01/13 06:11:23;;;;;;;1.13;1.13;;;;;;;16.06;45.11;98227.09;7005177;28;20256;-79
2023/01/13 06:14:46;;;;;;;2.50;1.30;;;;;;;16.10;45.10;98225.53;7004310;28;20360;-79
2023/01/13 06:18:08;;;;;;;4.50;2.80;;;;;;;15.44;46.39;98239.28;7005135;28;20315;-79
2023/01/13 06:21:29;;;;;;;2.20;2.00;;;;;;;15.05;47.50;98240.31;7004927;28;20248;-79
2023/01/13 06:24:52;;;;;;;1.73;1.30;;;;;;;14.76;47.31;98196.09;7003765;28;20360;-79
2023/01/13 06:28:14;;;;;;;1.37;1.27;;;;;;;15.35;46.83;98244.34;7004389;28;20199;-79
2023/01/13 06:31:37;;;;;;;1.37;1.30;;;;;;;14.52;47.93;98229.06;7004172;28;20840;-79
2023/01/13 06:35:02;;;;;;;1.60;1.40;;;;;;;15.78;45.85;98255.28;7003879;28;20383;-79
2023/01/13 06:38:25;;;;;;;1.03;1.03;;;;;;;15.14;47.10;98246.94;7004714;28;20657;-79
2023/01/13 06:45:29;;;;;;;1.20;1.20;;;;;;;15.61;46.45;98246.34;7002795;28;20694;-79
2023/01/13 06:48:52;;;;;;;1.13;1.13;;;;;;;15.82;45.72;98236.59;7003038;28;20633;-79
2023/01/13 06:52:13;;;;;;;1.43;1.20;;;;;;;15.96;45.30;98224.25;7003073;28;20343;-79
2023/01/13 06:55:35;;;;;;;1.33;1.27;;;;;;;15.37;46.63;98239.50;7003345;28;20314;-79
2023/01/13 06:58:56;;;;;;;1.20;1.20;;;;;;;15.64;46.23;98226.81;7004997;28;20292;-79
2023/01/13 07:02:18;;;;;;;1.40;1.30;;;;;;;15.77;45.77;98209.34;7004910;28;20289;-78
2023/01/13 07:05:41;;;;;;;1.47;1.00;;;;;;;15.88;45.98;98238.28;7004521;28;20312;-78
2023/01/13 07:09:03;;;;;;;1.50;1.40;;;;;;;15.46;46.93;98237.16;7005764;28;20705;-79
2023/01/13 07:12:25;;;;;;;1.10;1.10;;;;;;;15.46;46.86;98235.25;7005645;28;20281;-79
2023/01/13 07:15:53;;;;;;;2.70;1.27;;;;;;;15.11;47.63;98201.31;7003799;28;20365;-80
2023/01/13 07:19:21;;;;;;;1.00;1.00;;;;;;;14.86;48.60;98228.06;7003247;28;20193;-79
2023/01/13 07:22:45;;;;;;;1.10;1.10;;;;;;;15.42;47.14;98230.59;7004379;28;20197;-79
2023/01/13 07:26:07;;;;;;;0.97;0.97;;;;;;;15.56;46.98;98229.97;7003625;28;20313;-80
2023/01/13 07:29:28;;;;;;;1.00;1.00;;;;;;;15.05;48.25;98238.38;6990507;28;20665;-79
2023/01/13 07:32:50;;;;;;;1.17;1.17;;;;;;;15.03;47.74;98190.84;6976355;28;20298;-79
2023/01/13 07:36:12;;;;;;;1.70;1.10;;;;;;;15.05;48.21;98230.25;6976142;28;20512;-79
2023/01/13 07:39:35;;;;;;;1.07;1.07;;;;;;;15.22;48.12;98233.78;6976450;28;20293;-79
2023/01/13 07:46:35;;;;;;;1.20;1.20;;;;;;;15.23;47.97;98235.41;6975335;28;20218;-79
2023/01/13 07:49:57;;;;;;;1.23;1.07;;;;;;;15.17;47.83;98216.59;6975407;28;20216;-79
2023/01/13 07:53:19;;;;;;;1.10;1.10;;;;;;;14.86;49.00;98247.84;6982882;28;20295;-79
2023/01/13 07:56:42;;;;;;;1.03;1.03;;;;;;;14.96;48.69;98247.19;7003136;28;20225;-80
2023/01/13 08:00:03;;;;;;;1.10;1.10;;;;;;;14.28;50.04;98224.81;7002744;28;20670;-79
2023/01/13 08:03:26;;;;;;;2.17;1.30;;;;;;;14.76;49.16;98236.00;6998386;28;20693;-80
2023/01/13 08:06:48;;;;;;;1.57;1.03;;;;;;;14.53;49.84;98223.41;6992985;28;20363;-79
2023/01/13 08:10:10;;;;;;;1.00;1.00;;;;;;;14.54;50.05;98249.47;7002414;28;20206;-79
2023/01/13 08:13:33;;;;;;;0.90;0.90;;;;;;;14.64;49.71;98232.53;7002716;28;20578;-79
2023/01/13 08:16:55;;;;;;;1.10;1.03;;;;;;;14.92;49.60;98267.78;7001893;28;20231;-78
2023/01/13 08:20:17;;;;;;;2.27;1.10;;;;;;;14.88;49.13;98251.16;7002263;28;20203;-79
2023/01/13 08:23:38;;;;;;;1.40;1.30;;;;;;;14.92;49.92;98263.16;6979092;28;20216;-79
2023/01/13 08:27:00;;;;;;;1.10;1.10;;;;;;;15.02;49.95;98265.22;6976929;28;20246;-79
2023/01/13 08:30:23;;;;;;;1.10;1.10;;;;;;;14.84;50.70;98255.44;6974654;28;20280;-78
2023/01/13 08:33:45;;;;;;;1.40;1.30;;;;;;;15.24;49.98;98263.41;6975041;28;20260;-79
2023/01/13 08:37:07;;;;;;;0.90;0.90;;;;;;;15.33;49.24;98272.84;6974366;28;20227;-79
2023/01/13 08:40:28;;;;;;;1.27;1.00;;;;;;;15.13;50.64;98270.59;6974890;28;20265;-79
2023/01/13 08:43:53;;;;;;;1.10;1.10;;;;;;;15.57;49.46;98291.41;6973320;28;20275;-79
2023/01/13 08:47:16;;;;;;;0.87;0.87;;;;;;;15.26;49.86;98247.69;6973942;28;20244;-79
2023/01/13 08:50:37;;;;;;;1.10;1.10;;;;;;;15.57;49.59;98299.56;6974810;28;20203;-79
2023/01/13 08:53:59;;;;;;;2.97;1.30;;;;;;;15.40;50.98;98312.31;6986010;28;20639;-80
2023/01/13 08:57:20;;;;;;;1.10;1.10;;;;;;;14.79;53.50;98336.75;7001392;28;20761;-78
2023/01/13 09:00:43;;;;;;;1.13;1.10;;;;;;;14.26;55.25;98330.81;6974013;28;20212;-80
2023/01/13 09:04:06;;;;;;;1.20;1.10;;;;;;;14.31;56.04;98347.19;6974070;28;20225;-78
2023/01/13 09:07:28;;;;;;;1.33;1.30;;;;;;;14.79;55.21;98376.63;6974021;28;20317;-79
2023/01/13 09:10:50;;;;;;;1.10;1.10;;;;;;;14.72;54.62;98374.06;6974242;28;20206;-78
2023/01/13 09:14:10;;;;;;;1.63;1.10;;;;;;;14.68;55.08;98366.66;6973961;28;20341;-79
2023/01/13 09:17:32;;;;;;;2.57;2.37;;;;;;;14.87;55.62;98387.91;6973698;28;20238;-79
2023/01/13 09:20:54;;;;;;;1.93;1.63;;;;;;;14.65;56.11;98433.09;6974521;28;20682;-79
2023/01/13 09:24:16;;;;;;;1.50;1.40;;;;;;;13.44;57.26;98406.09;6990673;28;20293;-78
2023/01/13 09:27:38;;;;;;;2.43;2.23;;;;;;;13.54;55.95;98442.41;7003358;28;20316;-79
2023/01/13 09:31:00;;;;;;;2.43;2.23;;;;;;;14.03;54.35;98430.28;7002742;28;20335;-79
2023/01/13 09:38:02;;;;;;;2.20;2.00;;;;;;;13.50;55.11;98424.94;7001544;28;20262;-78
2023/01/13 09:45:08;;;;;;;1.47;1.37;;;;;;;13.79;54.25;98431.34;6991174;28;20662;-78
2023/01/13 09:48:32;;;;;;;2.90;2.13;;;;;;;14.11;53.67;98430.75;7007131;28;20205;-79
2023/01/13 09:51:58;;;;;;;1.87;1.77;;;;;;;14.37;52.58;98443.03;7008113;28;20263;-79
2023/01/13 09:55:28;;;;;;;2.20;2.00;;;;;;;13.36;55.71;98438.91;7007245;28;20371;-79
2023/01/13 09:58:50;;;;;;;1.47;1.40;;;;;;;13.79;53.81;98418.63;6980137;28;20202;-78
2023/01/13 10:02:38;;;;;;;2.30;1.87;;;;;;;13.89;54.52;98437.00;6987069;28;20340;-76
2023/01/13 10:06:05;;;;;;;1.57;1.47;;;;;;;14.30;53.39;98431.50;7002800;28;20296;-78
2023/01/13 10:09:31;;;;;;;2.10;1.80;;;;;;;13.68;53.96;98430.28;7006067;28;20302;-79
2023/01/13 10:16:40;;;;;;;1.43;1.33;;;;;;;13.81;54.17;98443.59;7003490;28;20244;-79
2023/01/13 10:20:14;;;;;;;1.13;1.13;;;;;;;13.86;52.81;98441.00;7000320;28;20193;-79
2023/01/13 10:23:44;;;;;;;3.17;2.87;;;;;;;13.40;53.49;98454.47;6984171;28;20218;-78
2023/01/13 10:27:12;;;;;;;14.57;9.07;;;;;;;13.76;53.47;98461.63;6995521;28;20316;-79
2023/01/13 10:30:38;;;;;;;2.10;1.30;;;;;;;13.21;55.49;98471.84;7005999;28;20288;-78
2023/01/13 10:34:02;;;;;;;1.73;1.63;;;;;;;13.47;54.51;98449.81;7005684;28;20182;-79
2023/01/13 10:37:25;;;;;;;2.80;2.10;;;;;;;13.85;54.20;98460.22;7005702;28;20318;-79
2023/01/13 10:40:48;;;;;;;1.53;1.43;;;;;;;13.58;54.63;98467.94;7005547;28;20290;-78
2023/01/13 10:44:15;;;;;;;1.37;1.33;;;;;;;13.52;55.34;98489.72;7003384;28;20295;-80
2023/01/13 10:47:38;;;;;;;3.70;1.50;;;;;;;13.80;55.83;98481.78;7005846;28;20229;-77
2023/01/13 10:51:10;;;;;;;1.13;1.13;;;;;;;14.25;55.22;98477.47;7004955;28;20210;-77
2023/01/13 10:54:50;;;;;;;1.40;1.30;;;;;;;14.03;54.69;98463.66;7004532;28;20260;-78
2023/01/13 10:58:13;;;;;;;2.47;2.27;;;;;;;14.25;54.42;98444.94;7004883;28;20298;-77
2023/01/13 11:01:35;;;;;;;2.37;1.83;;;;;;;15.08;53.38;98465.16;7004598;28;20569;-77
2023/01/13 11:05:10;;;;;;;2.70;2.13;;;;;;;15.04;52.88;98469.44;6992417;28;20213;-76
2023/01/13 11:08:41;;;;;;;3.00;2.20;;;;;;;14.95;53.23;98444.56;6983670;28;20191;-79
2023/01/13 11:12:04;;;;;;;2.50;1.70;;;;;;;14.63;53.59;98439.81;7005454;28;20193;-80
2023/01/13 11:15:36;;;;;;;3.63;2.00;;;;;;;14.25;54.18;98481.03;7004560;28;20247;-80
2023/01/13 11:19:10;;;;;;;3.33;2.10;;;;;;;14.26;54.99;98473.69;7004607;28;20296;-78
2023/01/13 11:22:35;;;;;;;1.93;1.70;;;;;;;13.27;54.83;98478.22;7004800;28;20299;-78
2023/01/13 11:26:06;;;;;;;2.47;1.50;;;;;;;13.18;55.02;98485.84;7003643;28;20229;-79
2023/01/13 11:29:33;;;;;;;2.70;1.63;;;;;;;13.65;54.41;98500.34;7004411;28;20557;-78
2023/01/13 11:33:09;;;;;;;3.63;2.43;;;;;;;13.39;54.98;98492.63;6999865;28;20350;-78
2023/01/13 11:36:34;;;;;;;2.63;1.47;;;;;;;13.27;55.21;98506.09;7003031;28;20233;-77
2023/01/13 11:40:02;;;;;;;4.10;1.80;;;;;;;12.80;54.87;98498.78;7003727;28;20210;-79
2023/01/13 11:43:29;;;;;;;1.70;1.60;;;;;;;12.79;54.31;98458.41;6998069;28;20239;-78
2023/01/13 11:46:52;;;;;;;1.67;1.53;;;;;;;12.93;55.49;98506.72;6975580;28;20634;-78
2023/01/13 11:50:16;;;;;;;3.33;2.00;;;;;;;12.61;55.48;98480.91;6993106;28;20293;-79
2023/01/13 11:53:51;;;;;;;4.00;3.30;;;;;;;12.78;54.90;98527.13;6982143;28;20178;-79
2023/01/13 11:57:33;;;;;;;8.70;6.63;;;;;;;12.89;55.11;98502.84;7003007;28;20229;-80
2023/01/13 12:01:02;;;;;;;6.07;2.63;;;;;;;13.25;54.23;98512.81;6975017;28;20253;-79
2023/01/13 12:04:27;;;;;;;3.90;2.67;;;;;;;13.13;53.96;98490.28;6972710;28;20359;-80
2023/01/13 12:07:55;;;;;;;4.00;2.30;;;;;;;12.48;54.96;98482.94;6990334;28;20369;-80
2023/01/13 12:11:21;;;;;;;5.40;3.20;;;;;;;12.70;54.41;98495.78;7001637;28;20192;-78
2023/01/13 12:14:56;;;;;;;3.60;2.53;;;;;;;12.88;54.23;98476.84;7001418;28;20206;-79
2023/01/13 12:18:38;;;;;;;3.50;2.80;;;;;;;13.57;52.39;98492.56;7004564;28;20821;-79
2023/01/13 12:22:07;;;;;;;4.70;1.70;;;;;;;12.84;53.71;98491.03;7004004;28;20210;-79
2023/01/13 12:25:33;;;;;;;6.00;2.83;;;;;;;13.15;53.41;98493.59;6984449;28;20225;-79
2023/01/13 12:28:57;;;;;;;3.20;2.80;;;;;;;13.01;53.59;98508.34;7004384;28;20258;-79
2023/01/13 12:32:25;;;;;;;2.20;2.00;;;;;;;12.96;53.45;98509.03;7004566;28;20782;-79
2023/01/13 12:35:54;;;;;;;2.33;1.70;;;;;;;13.29;53.04;98519.44;7003181;28;20245;-81
2023/01/13 12:39:18;;;;;;;1.93;1.80;;;;;;;13.08;53.00;98525.31;7004141;28;20216;-79
2023/01/13 12:46:45;;;;;;;1.80;1.67;;;;;;;13.14;52.08;98537.94;7003224;28;20213;-79
2023/01/13 12:50:46;;;;;;;1.83;1.50;;;;;;;13.11;51.82;98552.75;7004493;28;20241;-80
2023/01/13 12:54:54;;;;;;;3.17;1.90;;;;;;;12.82;52.90;98539.97;6994788;28;20246;-79
2023/01/13 12:58:17;;;;;;;2.57;1.80;;;;;;;13.24;50.97;98554.47;7003472;28;20293;-79
2023/01/13 13:01:38;;;;;;;2.80;2.13;;;;;;;13.03;51.04;98553.06;7004957;28;20206;-79
2023/01/13 13:05:21;;;;;;;2.80;2.17;;;;;;;13.15;52.28;98564.78;7004661;28;20279;-79
2023/01/13 13:08:53;;;;;;;3.17;1.60;;;;;;;13.10;52.37;98558.41;7001248;28;20202;-79
2023/01/13 13:16:51;;;;;;;3.37;1.93;;;;;;;13.86;49.42;98559.44;7006431;28;20217;-79
2023/01/13 13:20:53;;;;;;;2.20;1.80;;;;;;;14.27;48.33;98551.28;6999374;28;20684;-79
2023/01/13 13:24:17;;;;;;;4.83;2.20;;;;;;;13.88;47.30;98550.03;6980110;28;20221;-79
2023/01/13 13:27:41;;;;;;;5.00;2.50;;;;;;;13.61;47.35;98548.75;7003595;28;20720;-79
2023/01/13 13:31:17;;;;;;;4.87;2.10;;;;;;;13.96;45.52;98528.00;7007692;28;20292;-78
2023/01/13 13:34:45;;;;;;;5.17;2.87;;;;;;;14.24;44.76;98557.16;7008044;28;20213;-79
2023/01/13 13:49:36;;;;;;;8.77;5.13;;;;;;;14.45;44.56;98568.28;6980339;28;20180;-79
2023/01/13 13:53:04;;;;;;;9.20;4.77;;;;;;;14.37;44.45;98527.94;6981971;28;20280;-80
2023/01/13 13:56:27;;;;;;;6.13;2.90;;;;;;;14.29;44.15;98560.00;6980047;28;20229;-79
2023/01/13 13:59:53;;;;;;;5.67;2.40;;;;;;;13.78;44.92;98560.59;6995074;28;20198;-80
2023/01/13 14:03:23;;;;;;;5.00;3.00;;;;;;;13.61;45.30;98578.56;7008471;28;20269;-80
2023/01/13 14:06:54;;;;;;;6.20;2.77;;;;;;;13.40;46.33;98589.88;7008054;28;20323;-80
2023/01/13 14:10:21;;;;;;;7.93;4.20;;;;;;;13.80;44.75;98582.84;7008718;28;20616;-80
2023/01/13 14:13:42;;;;;;;8.07;3.00;;;;;;;14.01;45.32;98609.44;6990133;28;20217;-79
2023/01/13 14:17:04;;;;;;;7.90;3.97;;;;;;;13.74;44.95;98555.88;6979976;28;20253;-80
2023/01/13 14:20:28;;;;;;;6.40;2.83;;;;;;;13.58;45.54;98627.75;6981521;28;20226;-80
2023/01/13 14:23:51;;;;;;;5.23;1.83;;;;;;;13.06;46.95;98595.09;6982799;28;20209;-79
2023/01/13 14:27:15;;;;;;;3.83;2.40;;;;;;;12.61;48.39;98636.94;6985283;28;20317;-80
2023/01/13 14:30:37;;;;;;;3.63;2.10;;;;;;;12.44;50.89;98647.50;6990524;28;20661;-80
2023/01/13 14:34:01;;;;;;;2.73;2.07;;;;;;;12.51;52.71;98661.78;7010852;28;20268;-81
2023/01/13 14:37:26;;;;;;;3.57;2.43;;;;;;;12.38;54.05;98675.41;7015919;28;20325;-81
2023/01/13 14:40:48;;;;;;;4.20;1.70;;;;;;;12.03;54.80;98660.69;7011935;28;20630;-81
2023/01/13 14:44:13;;;;;;;1.80;1.70;;;;;;;12.12;55.49;98653.16;7010936;28;20205;-81
2023/01/13 14:47:35;;;;;;;5.23;2.30;;;;;;;12.21;55.16;98604.00;7009744;28;20289;-81
2023/01/13 14:50:57;;;;;;;6.27;2.40;;;;;;;12.72;54.35;98647.88;7011976;28;20422;-82
2023/01/13 14:54:43;;;;;;;4.57;2.47;;;;;;;12.61;54.37;98655.88;7010819;28;20553;-81
2023/01/13 14:58:23;;;;;;;6.67;3.10;;;;;;;12.25;53.52;98609.81;7011733;28;20238;-81
2023/01/13 15:01:45;;;;;;;2.47;2.27;;;;;;;12.27;54.26;98686.13;6999868;28;20198;-82
2023/01/13 15:05:33;;;;;;;1.60;1.50;;;;;;;12.44;53.11;98689.91;6997485;28;20213;-82
2023/01/13 15:08:55;;;;;;;3.03;1.87;;;;;;;12.72;52.23;98691.16;6999444;28;20584;-81
2023/01/13 15:12:24;;;;;;;3.00;2.07;;;;;;;11.87;53.21;98636.88;7007990;28;20297;-80
2023/01/13 15:15:50;;;;;;;2.53;1.90;;;;;;;12.03;53.23;98705.81;7007165;28;20248;-81
2023/01/13 15:19:11;;;;;;;2.53;1.80;;;;;;;12.15;52.89;98680.56;7006555;28;20306;-82
2023/01/13 15:22:33;;;;;;;3.10;1.77;;;;;;;11.99;52.69;98702.69;7007242;28;20666;-81
2023/01/13 15:25:54;;;;;;;2.33;1.70;;;;;;;11.53;52.49;98661.56;7006167;28;20698;-81
2023/01/13 15:29:18;;;;;;;2.93;1.97;;;;;;;12.28;51.62;98691.28;7004950;28;20206;-81
2023/01/13 15:32:39;;;;;;;5.43;2.83;;;;;;;11.89;53.12;98721.25;7006213;28;20206;-82
2023/01/13 15:36:02;;;;;;;5.60;2.80;;;;;;;11.93;53.07;98727.88;7003706;28;20317;-81
2023/01/13 15:39:23;;;;;;;3.33;2.30;;;;;;;12.39;51.92;98741.16;7004352;28;20887;-82
2023/01/13 15:46:38;;;;;;;6.10;2.80;;;;;;;12.03;52.13;98757.97;7004003;28;20221;-81
2023/01/13 15:50:00;;;;;;;5.00;2.30;;;;;;;12.43;51.35;98759.41;6987693;28;20344;-81
2023/01/13 15:53:21;;;;;;;3.23;1.83;;;;;;;12.24;51.81;98754.13;6977459;28;20301;-81
2023/01/13 15:56:42;;;;;;;3.07;1.87;;;;;;;12.77;50.28;98745.44;6976415;28;20325;-81
2023/01/13 16:00:07;;;;;;;2.77;1.70;;;;;;;12.02;51.53;98748.22;6976990;28;20279;-81
2023/01/13 16:03:30;;;;;;;1.97;1.77;;;;;;;12.42;51.00;98763.16;6977948;28;20293;-81
2023/01/13 16:06:52;;;;;;;4.30;2.17;;;;;;;12.34;51.22;98768.00;6976677;28;20316;-81
2023/01/13 16:10:17;;;;;;;2.70;1.90;;;;;;;12.08;51.61;98768.13;6976829;28;20202;-80
2023/01/13 16:13:39;;;;;;;3.50;2.13;;;;;;;12.55;50.35;98782.00;6976029;28;20657;-80
2023/01/13 16:17:01;;;;;;;3.47;2.07;;;;;;;12.30;50.73;98758.66;6973694;28;20298;-82
2023/01/13 16:20:24;;;;;;;3.67;2.00;;;;;;;12.29;51.01;98784.03;6974987;28;20226;-81
2023/01/13 16:23:46;;;;;;;4.57;2.40;;;;;;;12.27;51.33;98780.72;6999333;28;20289;-81
2023/01/13 16:27:12;;;;;;;4.57;2.40;;;;;;;12.49;50.90;98782.88;7001812;28;20641;-81
2023/01/13 16:30:36;;;;;;;5.70;2.30;;;;;;;12.67;50.40;98776.72;7002795;28;20286;-81
2023/01/13 16:33:58;;;;;;;3.90;2.33;;;;;;;12.37;50.97;98790.03;7003079;28;20296;-80
2023/01/13 16:37:22;;;;;;;4.03;2.20;;;;;;;11.89;51.88;98796.06;7001734;28;20250;-81
2023/01/13 16:40:44;;;;;;;3.10;2.30;;;;;;;12.21;51.36;98803.22;6996839;28;20287;-81
2023/01/13 16:44:05;;;;;;;3.17;1.90;;;;;;;12.26;51.52;98809.63;7002069;28;20604;-80
2023/01/13 16:47:27;;;;;;;3.87;2.07;;;;;;;12.55;50.38;98810.91;7001985;28;20226;-80
2023/01/13 16:50:48;;;;;;;4.70;3.00;;;;;;;12.42;50.21;98781.25;7010039;28;20331;-80
2023/01/13 16:54:11;;;;;;;4.07;2.50;;;;;;;12.39;50.38;98819.56;7013013;28;20693;-80
2023/01/13 16:57:33;;;;;;;3.37;2.70;;;;;;;12.54;50.27;98814.66;7006460;28;20237;-80
2023/01/13 17:00:54;;;;;;;5.63;2.27;;;;;;;12.78;49.32;98811.19;7013290;28;20742;-80
2023/01/13 17:04:18;;;;;;;4.50;2.27;;;;;;;12.46;49.81;98788.69;7012487;28;20233;-79
2023/01/13 17:07:39;;;;;;;4.53;2.40;;;;;;;12.39;50.23;98800.63;7012248;28;20308;-80
2023/01/13 17:11:02;;;;;;;13.60;6.83;;;;;;;12.49;50.47;98836.97;7013015;28;20198;-80
2023/01/13 17:14:24;;;;;;;3.87;2.33;;;;;;;12.30;50.28;98823.53;7006312;28;20225;-80